sensor_id;sensor_type;location;lat;lon;timestamp;P1;durP1;ratioP1;P2;durP2;ratioP2
62633;SDS011;48704;50.534;6.442;2023-04-01T00:01:17;0.70;;;0.43;;
62633;SDS011;48704;50.534;6.442;2023-04-01T00:03:42;2.10;;;0.30;;
62633;SDS011;48704;50.534;6.442;2023-04-01T00:06:09;1.10;;;0.40;;
62633;SDS011;48704;50.534;6.442;2023-04-01T00:08:38;1.55;;;0.47;;
62633;SDS011;48704;50.534;6.442;2023-04-01T00:11:03;2.40;;;0.43;;
62633;SDS011;48704;50.534;6.442;2023-04-01T00:13:28;1.85;;;0.22;;
62633;SDS011;48704;50.534;6.442;2023-04-01T00:15:54;1.25;;;0.20;;
62633;SDS011;48704;50.534;6.442;2023-04-01T00:18:20;1.90;;;0.30;;
62633;SDS011;48704;50.534;6.442;2023-04-01T00:20:46;2.70;;;0.40;;
62633;SDS011;48704;50.534;6.442;2023-04-01T00:23:13;4.07;;;0.52;;
62633;SDS011;48704;50.534;6.442;2023-04-01T00:25:39;0.82;;;0.30;;
62633;SDS011;48704;50.534;6.442;2023-04-01T00:28:04;1.55;;;0.30;;
62633;SDS011;48704;50.534;6.442;2023-04-01T00:30:30;2.90;;;0.38;;
62633;SDS011;48704;50.534;6.442;2023-04-01T00:32:55;0.73;;;0.40;;
62633;SDS011;48704;50.534;6.442;2023-04-01T00:35:20;0.65;;;0.38;;
62633;SDS011;48704;50.534;6.442;2023-04-01T00:37:46;0.70;;;0.40;;
62633;SDS011;48704;50.534;6.442;2023-04-01T00:40:22;0.57;;;0.30;;
62633;SDS011;48704;50.534;6.442;2023-04-01T00:42:53;1.55;;;0.40;;
62633;SDS011;48704;50.534;6.442;2023-04-01T00:45:35;0.45;;;0.30;;
62633;SDS011;48704;50.534;6.442;2023-04-01T00:48:10;0.10;;;0.10;;
62633;SDS011;48704;50.534;6.442;2023-04-01T00:50:40;3.28;;;0.45;;
62633;SDS011;48704;50.534;6.442;2023-04-01T00:53:09;2.60;;;0.43;;
62633;SDS011;48704;50.534;6.442;2023-04-01T00:55:35;0.40;;;0.20;;
62633;SDS011;48704;50.534;6.442;2023-04-01T00:58:05;0.75;;;0.22;;
62633;SDS011;48704;50.534;6.442;2023-04-01T01:00:34;1.65;;;0.50;;
62633;SDS011;48704;50.534;6.442;2023-04-01T01:03:00;0.77;;;0.22;;
62633;SDS011;48704;50.534;6.442;2023-04-01T01:08:39;0.32;;;0.10;;
62633;SDS011;48704;50.534;6.442;2023-04-01T01:11:37;1.17;;;0.63;;
62633;SDS011;48704;50.534;6.442;2023-04-01T01:16:55;0.80;;;0.40;;
62633;SDS011;48704;50.534;6.442;2023-04-01T01:19:45;3.43;;;0.30;;
62633;SDS011;48704;50.534;6.442;2023-04-01T01:22:25;0.90;;;0.30;;
62633;SDS011;48704;50.534;6.442;2023-04-01T01:25:14;2.08;;;0.30;;
62633;SDS011;48704;50.534;6.442;2023-04-01T01:27:54;2.13;;;0.30;;
62633;SDS011;48704;50.534;6.442;2023-04-01T01:33:32;3.08;;;0.43;;
62633;SDS011;48704;50.534;6.442;2023-04-01T01:36:00;1.65;;;0.28;;
62633;SDS011;48704;50.534;6.442;2023-04-01T01:38:31;1.23;;;0.25;;
62633;SDS011;48704;50.534;6.442;2023-04-01T01:40:58;0.90;;;0.22;;
62633;SDS011;48704;50.534;6.442;2023-04-01T01:43:28;0.52;;;0.35;;
62633;SDS011;48704;50.534;6.442;2023-04-01T01:45:57;0.80;;;0.28;;
62633;SDS011;48704;50.534;6.442;2023-04-01T01:48:26;0.65;;;0.30;;
62633;SDS011;48704;50.534;6.442;2023-04-01T01:50:54;1.83;;;0.28;;
62633;SDS011;48704;50.534;6.442;2023-04-01T01:53:20;1.52;;;0.38;;
62633;SDS011;48704;50.534;6.442;2023-04-01T01:55:45;2.05;;;0.30;;
62633;SDS011;48704;50.534;6.442;2023-04-01T01:58:31;1.00;;;0.47;;
62633;SDS011;48704;50.534;6.442;2023-04-01T02:01:01;2.50;;;0.40;;
62633;SDS011;48704;50.534;6.442;2023-04-01T02:03:31;0.73;;;0.20;;
62633;SDS011;48704;50.534;6.442;2023-04-01T02:06:00;0.20;;;0.20;;
62633;SDS011;48704;50.534;6.442;2023-04-01T02:08:29;1.50;;;0.28;;
62633;SDS011;48704;50.534;6.442;2023-04-01T02:11:02;1.27;;;0.20;;
62633;SDS011;48704;50.534;6.442;2023-04-01T02:16:12;0.68;;;0.63;;
62633;SDS011;48704;50.534;6.442;2023-04-01T02:18:41;0.47;;;0.30;;
62633;SDS011;48704;50.534;6.442;2023-04-01T02:21:10;0.32;;;0.30;;
62633;SDS011;48704;50.534;6.442;2023-04-01T02:23:37;0.10;;;0.10;;
62633;SDS011;48704;50.534;6.442;2023-04-01T02:26:04;1.25;;;0.20;;
62633;SDS011;48704;50.534;6.442;2023-04-01T02:28:32;0.77;;;0.20;;
62633;SDS011;48704;50.534;6.442;2023-04-01T02:31:00;0.38;;;0.25;;
62633;SDS011;48704;50.534;6.442;2023-04-01T02:33:27;0.38;;;0.13;;
62633;SDS011;48704;50.534;6.442;2023-04-01T02:35:53;0.28;;;0.20;;
62633;SDS011;48704;50.534;6.442;2023-04-01T02:38:18;2.28;;;0.80;;
62633;SDS011;48704;50.534;6.442;2023-04-01T02:40:45;0.70;;;0.30;;
62633;SDS011;48704;50.534;6.442;2023-04-01T02:43:15;0.20;;;0.10;;
62633;SDS011;48704;50.534;6.442;2023-04-01T02:45:41;1.75;;;0.22;;
62633;SDS011;48704;50.534;6.442;2023-04-01T02:48:07;1.00;;;0.20;;
62633;SDS011;48704;50.534;6.442;2023-04-01T02:50:32;1.38;;;0.20;;
62633;SDS011;48704;50.534;6.442;2023-04-01T02:52:57;0.55;;;0.10;;
62633;SDS011;48704;50.534;6.442;2023-04-01T02:55:23;1.50;;;0.30;;
62633;SDS011;48704;50.534;6.442;2023-04-01T02:57:48;0.52;;;0.20;;
62633;SDS011;48704;50.534;6.442;2023-04-01T03:00:13;0.38;;;0.20;;
62633;SDS011;48704;50.534;6.442;2023-04-01T03:02:39;0.10;;;0.10;;
62633;SDS011;48704;50.534;6.442;2023-04-01T03:05:05;0.10;;;0.10;;
62633;SDS011;48704;50.534;6.442;2023-04-01T03:07:31;0.10;;;0.10;;
62633;SDS011;48704;50.534;6.442;2023-04-01T03:09:56;0.55;;;0.20;;
62633;SDS011;48704;50.534;6.442;2023-04-01T03:12:21;0.13;;;0.13;;
62633;SDS011;48704;50.534;6.442;2023-04-01T03:14:47;0.57;;;0.15;;
62633;SDS011;48704;50.534;6.442;2023-04-01T03:17:12;0.63;;;0.20;;
62633;SDS011;48704;50.534;6.442;2023-04-01T03:19:37;2.38;;;1.17;;
62633;SDS011;48704;50.534;6.442;2023-04-01T03:22:03;0.08;;;0.08;;
62633;SDS011;48704;50.534;6.442;2023-04-01T03:24:28;1.17;;;0.25;;
62633;SDS011;48704;50.534;6.442;2023-04-01T03:26:53;0.30;;;0.30;;
62633;SDS011;48704;50.534;6.442;2023-04-01T03:29:19;0.10;;;0.10;;
62633;SDS011;48704;50.534;6.442;2023-04-01T03:31:44;0.17;;;0.10;;
62633;SDS011;48704;50.534;6.442;2023-04-01T03:34:09;0.65;;;0.32;;
62633;SDS011;48704;50.534;6.442;2023-04-01T03:36:35;0.10;;;0.10;;
62633;SDS011;48704;50.534;6.442;2023-04-01T03:39:00;0.10;;;0.10;;
62633;SDS011;48704;50.534;6.442;2023-04-01T03:41:26;0.10;;;0.10;;
62633;SDS011;48704;50.534;6.442;2023-04-01T03:43:51;0.17;;;0.10;;
62633;SDS011;48704;50.534;6.442;2023-04-01T03:46:18;0.40;;;0.17;;
62633;SDS011;48704;50.534;6.442;2023-04-01T03:48:45;1.15;;;0.10;;
62633;SDS011;48704;50.534;6.442;2023-04-01T03:51:10;0.28;;;0.10;;
62633;SDS011;48704;50.534;6.442;2023-04-01T03:53:36;0.20;;;0.10;;
62633;SDS011;48704;50.534;6.442;2023-04-01T03:56:07;0.47;;;0.20;;
62633;SDS011;48704;50.534;6.442;2023-04-01T03:58:34;0.10;;;0.10;;
62633;SDS011;48704;50.534;6.442;2023-04-01T04:00:59;0.30;;;0.10;;
62633;SDS011;48704;50.534;6.442;2023-04-01T04:03:25;0.10;;;0.10;;
62633;SDS011;48704;50.534;6.442;2023-04-01T04:05:51;0.13;;;0.10;;
62633;SDS011;48704;50.534;6.442;2023-04-01T04:08:16;0.15;;;0.10;;
62633;SDS011;48704;50.534;6.442;2023-04-01T04:10:42;0.10;;;0.10;;
62633;SDS011;48704;50.534;6.442;2023-04-01T04:13:08;0.15;;;0.15;;
62633;SDS011;48704;50.534;6.442;2023-04-01T04:15:33;0.43;;;0.20;;
62633;SDS011;48704;50.534;6.442;2023-04-01T04:17:59;0.00;;;0.00;;
62633;SDS011;48704;50.534;6.442;2023-04-01T04:20:24;0.10;;;0.10;;
62633;SDS011;48704;50.534;6.442;2023-04-01T04:22:49;0.20;;;0.20;;
62633;SDS011;48704;50.534;6.442;2023-04-01T04:25:15;1.02;;;0.32;;
62633;SDS011;48704;50.534;6.442;2023-04-01T04:27:40;0.55;;;0.28;;
62633;SDS011;48704;50.534;6.442;2023-04-01T04:30:06;0.75;;;0.20;;
62633;SDS011;48704;50.534;6.442;2023-04-01T04:32:32;0.80;;;0.20;;
62633;SDS011;48704;50.534;6.442;2023-04-01T04:34:58;0.38;;;0.13;;
62633;SDS011;48704;50.534;6.442;2023-04-01T04:37:23;0.28;;;0.15;;
62633;SDS011;48704;50.534;6.442;2023-04-01T04:39:50;0.17;;;0.10;;
62633;SDS011;48704;50.534;6.442;2023-04-01T04:42:16;0.17;;;0.17;;
62633;SDS011;48704;50.534;6.442;2023-04-01T04:44:41;0.17;;;0.08;;
62633;SDS011;48704;50.534;6.442;2023-04-01T04:47:06;0.20;;;0.20;;
62633;SDS011;48704;50.534;6.442;2023-04-01T04:49:32;0.10;;;0.10;;
62633;SDS011;48704;50.534;6.442;2023-04-01T04:51:57;0.22;;;0.20;;
62633;SDS011;48704;50.534;6.442;2023-04-01T04:54:22;0.63;;;0.20;;
62633;SDS011;48704;50.534;6.442;2023-04-01T04:56:48;0.10;;;0.10;;
62633;SDS011;48704;50.534;6.442;2023-04-01T04:59:13;0.10;;;0.10;;
62633;SDS011;48704;50.534;6.442;2023-04-01T05:01:38;0.30;;;0.17;;
62633;SDS011;48704;50.534;6.442;2023-04-01T05:04:04;0.77;;;0.30;;
62633;SDS011;48704;50.534;6.442;2023-04-01T05:06:29;0.55;;;0.20;;
62633;SDS011;48704;50.534;6.442;2023-04-01T05:08:55;0.22;;;0.13;;
62633;SDS011;48704;50.534;6.442;2023-04-01T05:11:21;0.22;;;0.15;;
62633;SDS011;48704;50.534;6.442;2023-04-01T05:13:47;0.10;;;0.10;;
62633;SDS011;48704;50.534;6.442;2023-04-01T05:16:17;0.38;;;0.10;;
62633;SDS011;48704;50.534;6.442;2023-04-01T05:18:43;0.30;;;0.22;;
62633;SDS011;48704;50.534;6.442;2023-04-01T05:21:10;0.65;;;0.52;;
62633;SDS011;48704;50.534;6.442;2023-04-01T05:23:36;0.25;;;0.20;;
62633;SDS011;48704;50.534;6.442;2023-04-01T05:26:03;0.45;;;0.15;;
62633;SDS011;48704;50.534;6.442;2023-04-01T05:28:29;0.50;;;0.20;;
62633;SDS011;48704;50.534;6.442;2023-04-01T05:30:55;0.30;;;0.20;;
62633;SDS011;48704;50.534;6.442;2023-04-01T05:33:24;0.20;;;0.15;;
62633;SDS011;48704;50.534;6.442;2023-04-01T05:35:49;3.22;;;0.43;;
62633;SDS011;48704;50.534;6.442;2023-04-01T05:38:15;0.32;;;0.20;;
62633;SDS011;48704;50.534;6.442;2023-04-01T05:40:40;0.25;;;0.20;;
62633;SDS011;48704;50.534;6.442;2023-04-01T05:43:05;1.00;;;0.52;;
62633;SDS011;48704;50.534;6.442;2023-04-01T05:45:31;1.15;;;0.30;;
62633;SDS011;48704;50.534;6.442;2023-04-01T05:47:56;1.23;;;0.38;;
62633;SDS011;48704;50.534;6.442;2023-04-01T05:50:21;0.40;;;0.30;;
62633;SDS011;48704;50.534;6.442;2023-04-01T05:52:47;0.50;;;0.30;;
62633;SDS011;48704;50.534;6.442;2023-04-01T05:55:12;0.45;;;0.28;;
62633;SDS011;48704;50.534;6.442;2023-04-01T05:57:37;1.10;;;0.40;;
62633;SDS011;48704;50.534;6.442;2023-04-01T06:00:03;0.47;;;0.20;;
62633;SDS011;48704;50.534;6.442;2023-04-01T06:02:29;1.85;;;0.35;;
62633;SDS011;48704;50.534;6.442;2023-04-01T06:05:15;4.20;;;0.30;;
62633;SDS011;48704;50.534;6.442;2023-04-01T06:07:47;0.20;;;0.20;;
62633;SDS011;48704;50.534;6.442;2023-04-01T06:10:21;0.70;;;0.30;;
62633;SDS011;48704;50.534;6.442;2023-04-01T06:13:09;0.47;;;0.28;;
62633;SDS011;48704;50.534;6.442;2023-04-01T06:15:52;0.10;;;0.10;;
62633;SDS011;48704;50.534;6.442;2023-04-01T06:18:34;0.68;;;0.35;;
62633;SDS011;48704;50.534;6.442;2023-04-01T06:21:22;0.98;;;0.20;;
62633;SDS011;48704;50.534;6.442;2023-04-01T06:26:52;0.68;;;0.43;;
62633;SDS011;48704;50.534;6.442;2023-04-01T06:40:27;1.48;;;0.55;;
62633;SDS011;48704;50.534;6.442;2023-04-01T06:45:54;0.75;;;0.50;;
62633;SDS011;48704;50.534;6.442;2023-04-01T06:51:39;1.20;;;0.50;;
62633;SDS011;48704;50.534;6.442;2023-04-01T06:54:10;1.67;;;0.40;;
62633;SDS011;48704;50.534;6.442;2023-04-01T06:56:40;1.05;;;0.45;;
62633;SDS011;48704;50.534;6.442;2023-04-01T06:59:17;0.93;;;0.45;;
62633;SDS011;48704;50.534;6.442;2023-04-01T07:01:49;0.40;;;0.38;;
62633;SDS011;48704;50.534;6.442;2023-04-01T07:04:23;3.10;;;0.77;;
62633;SDS011;48704;50.534;6.442;2023-04-01T07:06:57;0.95;;;0.50;;
62633;SDS011;48704;50.534;6.442;2023-04-01T07:09:26;0.90;;;0.50;;
62633;SDS011;48704;50.534;6.442;2023-04-01T07:11:59;1.13;;;0.50;;
62633;SDS011;48704;50.534;6.442;2023-04-01T07:14:35;1.45;;;0.50;;
62633;SDS011;48704;50.534;6.442;2023-04-01T07:19:31;0.77;;;0.30;;
62633;SDS011;48704;50.534;6.442;2023-04-01T07:22:05;0.88;;;0.55;;
62633;SDS011;48704;50.534;6.442;2023-04-01T07:24:44;0.43;;;0.32;;
62633;SDS011;48704;50.534;6.442;2023-04-01T07:27:11;1.63;;;0.40;;
62633;SDS011;48704;50.534;6.442;2023-04-01T07:29:38;1.25;;;0.40;;
62633;SDS011;48704;50.534;6.442;2023-04-01T07:37:52;1.05;;;0.43;;
62633;SDS011;48704;50.534;6.442;2023-04-01T07:40:41;2.35;;;0.60;;
62633;SDS011;48704;50.534;6.442;2023-04-01T07:51:21;0.70;;;0.45;;
62633;SDS011;48704;50.534;6.442;2023-04-01T08:06:22;0.60;;;0.40;;
62633;SDS011;48704;50.534;6.442;2023-04-01T08:14:20;0.80;;;0.43;;
62633;SDS011;48704;50.534;6.442;2023-04-01T08:22:42;1.13;;;0.50;;
62633;SDS011;48704;50.534;6.442;2023-04-01T08:25:16;0.55;;;0.40;;
62633;SDS011;48704;50.534;6.442;2023-04-01T08:28:09;0.25;;;0.20;;
62633;SDS011;48704;50.534;6.442;2023-04-01T08:36:36;1.08;;;0.45;;
62633;SDS011;48704;50.534;6.442;2023-04-01T08:39:06;0.52;;;0.40;;
62633;SDS011;48704;50.534;6.442;2023-04-01T08:44:34;1.13;;;0.70;;
62633;SDS011;48704;50.534;6.442;2023-04-01T08:53:27;1.30;;;0.70;;
62633;SDS011;48704;50.534;6.442;2023-04-01T08:56:13;0.93;;;0.55;;
62633;SDS011;48704;50.534;6.442;2023-04-01T09:12:31;1.42;;;0.63;;
62633;SDS011;48704;50.534;6.442;2023-04-01T09:15:03;0.95;;;0.60;;
62633;SDS011;48704;50.534;6.442;2023-04-01T09:17:43;2.35;;;0.60;;
62633;SDS011;48704;50.534;6.442;2023-04-01T09:20:26;2.33;;;0.70;;
62633;SDS011;48704;50.534;6.442;2023-04-01T09:23:16;1.63;;;0.50;;
62633;SDS011;48704;50.534;6.442;2023-04-01T09:29:01;1.38;;;0.68;;
62633;SDS011;48704;50.534;6.442;2023-04-01T09:37:34;1.90;;;1.20;;
62633;SDS011;48704;50.534;6.442;2023-04-01T09:40:14;1.65;;;0.75;;
62633;SDS011;48704;50.534;6.442;2023-04-01T09:48:48;1.20;;;0.60;;
62633;SDS011;48704;50.534;6.442;2023-04-01T09:57:16;1.38;;;0.73;;
62633;SDS011;48704;50.534;6.442;2023-04-01T10:00:03;1.10;;;0.75;;
62633;SDS011;48704;50.534;6.442;2023-04-01T10:02:42;0.88;;;0.60;;
62633;SDS011;48704;50.534;6.442;2023-04-01T10:14:24;0.90;;;0.50;;
62633;SDS011;48704;50.534;6.442;2023-04-01T10:16:59;1.45;;;0.60;;
62633;SDS011;48704;50.534;6.442;2023-04-01T10:22:33;1.05;;;0.50;;
62633;SDS011;48704;50.534;6.442;2023-04-01T10:27:38;2.67;;;0.60;;
62633;SDS011;48704;50.534;6.442;2023-04-01T10:54:48;0.70;;;0.40;;
62633;SDS011;48704;50.534;6.442;2023-04-01T11:02:49;0.90;;;0.40;;
62633;SDS011;48704;50.534;6.442;2023-04-01T11:05:38;1.23;;;0.55;;
62633;SDS011;48704;50.534;6.442;2023-04-01T11:13:41;1.15;;;0.52;;
62633;SDS011;48704;50.534;6.442;2023-04-01T11:43:01;0.75;;;0.40;;
62633;SDS011;48704;50.534;6.442;2023-04-01T11:45:17;0.57;;;0.30;;
62633;SDS011;48704;50.534;6.442;2023-04-01T11:53:39;0.65;;;0.30;;
62633;SDS011;48704;50.534;6.442;2023-04-01T11:56:13;0.52;;;0.30;;
62633;SDS011;48704;50.534;6.442;2023-04-01T11:59:45;0.90;;;0.50;;
62633;SDS011;48704;50.534;6.442;2023-04-01T12:01:44;2.17;;;0.40;;
62633;SDS011;48704;50.534;6.442;2023-04-01T12:15:29;0.95;;;0.50;;
62633;SDS011;48704;50.534;6.442;2023-04-01T12:18:20;0.93;;;0.40;;
62633;SDS011;48704;50.534;6.442;2023-04-01T12:20:50;1.50;;;0.50;;
62633;SDS011;48704;50.534;6.442;2023-04-01T12:43:42;0.95;;;0.55;;
62633;SDS011;48704;50.534;6.442;2023-04-01T12:52:54;1.05;;;0.63;;
62633;SDS011;48704;50.534;6.442;2023-04-01T12:54:56;1.08;;;0.63;;
62633;SDS011;48704;50.534;6.442;2023-04-01T13:06:20;1.73;;;1.00;;
62633;SDS011;48704;50.534;6.442;2023-04-01T13:19:54;1.20;;;0.75;;
62633;SDS011;48704;50.534;6.442;2023-04-01T13:28:06;2.60;;;1.00;;
62633;SDS011;48704;50.534;6.442;2023-04-01T13:33:27;1.35;;;0.70;;
62633;SDS011;48704;50.534;6.442;2023-04-01T13:36:20;1.38;;;0.82;;
62633;SDS011;48704;50.534;6.442;2023-04-01T13:44:34;1.67;;;0.70;;
62633;SDS011;48704;50.534;6.442;2023-04-01T13:55:44;3.03;;;0.70;;
62633;SDS011;48704;50.534;6.442;2023-04-01T14:01:06;0.88;;;0.57;;
62633;SDS011;48704;50.534;6.442;2023-04-01T14:23:37;1.45;;;0.77;;
62633;SDS011;48704;50.534;6.442;2023-04-01T14:29:51;2.53;;;1.23;;
62633;SDS011;48704;50.534;6.442;2023-04-01T14:32:41;3.03;;;1.30;;
62633;SDS011;48704;50.534;6.442;2023-04-01T14:35:24;1.65;;;0.98;;
62633;SDS011;48704;50.534;6.442;2023-04-01T14:40:54;1.98;;;0.98;;
62633;SDS011;48704;50.534;6.442;2023-04-01T14:46:32;3.65;;;1.40;;
62633;SDS011;48704;50.534;6.442;2023-04-01T14:49:37;2.33;;;1.20;;
62633;SDS011;48704;50.534;6.442;2023-04-01T14:52:39;1.95;;;1.20;;
62633;SDS011;48704;50.534;6.442;2023-04-01T14:55:19;2.13;;;1.30;;
62633;SDS011;48704;50.534;6.442;2023-04-01T14:57:58;1.40;;;0.75;;
62633;SDS011;48704;50.534;6.442;2023-04-01T15:03:30;1.50;;;0.68;;
62633;SDS011;48704;50.534;6.442;2023-04-01T15:15:23;4.25;;;1.02;;
62633;SDS011;48704;50.534;6.442;2023-04-01T15:18:13;2.25;;;1.08;;
62633;SDS011;48704;50.534;6.442;2023-04-01T15:24:25;2.25;;;1.05;;
62633;SDS011;48704;50.534;6.442;2023-04-01T15:30:14;2.03;;;0.90;;
62633;SDS011;48704;50.534;6.442;2023-04-01T15:32:58;2.90;;;0.70;;
62633;SDS011;48704;50.534;6.442;2023-04-01T15:39:09;1.83;;;0.90;;
62633;SDS011;48704;50.534;6.442;2023-04-01T15:44:58;1.00;;;0.70;;
62633;SDS011;48704;50.534;6.442;2023-04-01T15:50:05;1.80;;;0.82;;
62633;SDS011;48704;50.534;6.442;2023-04-01T15:55:39;1.55;;;0.70;;
62633;SDS011;48704;50.534;6.442;2023-04-01T16:01:04;2.00;;;0.93;;
62633;SDS011;48704;50.534;6.442;2023-04-01T16:10:13;1.15;;;0.68;;
62633;SDS011;48704;50.534;6.442;2023-04-01T16:15:51;1.50;;;0.57;;
62633;SDS011;48704;50.534;6.442;2023-04-01T16:18:27;0.90;;;0.50;;
62633;SDS011;48704;50.534;6.442;2023-04-01T16:21:18;1.63;;;0.77;;
62633;SDS011;48704;50.534;6.442;2023-04-01T16:23:56;1.63;;;0.88;;
62633;SDS011;48704;50.534;6.442;2023-04-01T16:26:32;1.55;;;0.63;;
62633;SDS011;48704;50.534;6.442;2023-04-01T16:32:22;3.85;;;1.10;;
62633;SDS011;48704;50.534;6.442;2023-04-01T16:34:56;1.35;;;0.73;;
62633;SDS011;48704;50.534;6.442;2023-04-01T16:37:32;1.88;;;0.93;;
62633;SDS011;48704;50.534;6.442;2023-04-01T16:43:13;1.95;;;0.85;;
62633;SDS011;48704;50.534;6.442;2023-04-01T16:46:26;1.98;;;0.82;;
62633;SDS011;48704;50.534;6.442;2023-04-01T16:54:26;2.92;;;0.88;;
62633;SDS011;48704;50.534;6.442;2023-04-01T17:11:22;1.20;;;0.60;;
62633;SDS011;48704;50.534;6.442;2023-04-01T17:25:08;0.82;;;0.47;;
62633;SDS011;48704;50.534;6.442;2023-04-01T17:30:29;1.05;;;0.70;;
62633;SDS011;48704;50.534;6.442;2023-04-01T17:48:46;3.20;;;1.48;;
62633;SDS011;48704;50.534;6.442;2023-04-01T17:51:36;1.73;;;1.05;;
62633;SDS011;48704;50.534;6.442;2023-04-01T18:00:02;1.73;;;1.00;;
62633;SDS011;48704;50.534;6.442;2023-04-01T18:05:29;2.88;;;1.17;;
62633;SDS011;48704;50.534;6.442;2023-04-01T18:10:48;1.77;;;1.05;;
62633;SDS011;48704;50.534;6.442;2023-04-01T18:13:23;1.52;;;0.88;;
62633;SDS011;48704;50.534;6.442;2023-04-01T18:16:17;2.38;;;1.20;;
62633;SDS011;48704;50.534;6.442;2023-04-01T18:28:17;1.77;;;1.10;;
62633;SDS011;48704;50.534;6.442;2023-04-01T18:31:32;2.33;;;1.25;;
62633;SDS011;48704;50.534;6.442;2023-04-01T18:39:49;2.35;;;1.10;;
62633;SDS011;48704;50.534;6.442;2023-04-01T18:51:26;3.35;;;1.20;;
62633;SDS011;48704;50.534;6.442;2023-04-01T18:54:29;1.60;;;0.95;;
62633;SDS011;48704;50.534;6.442;2023-04-01T18:57:16;1.75;;;0.93;;
62633;SDS011;48704;50.534;6.442;2023-04-01T19:00:21;2.75;;;1.15;;
62633;SDS011;48704;50.534;6.442;2023-04-01T19:03:07;1.75;;;0.98;;
62633;SDS011;48704;50.534;6.442;2023-04-01T19:05:50;2.42;;;1.27;;
62633;SDS011;48704;50.534;6.442;2023-04-01T19:08:32;2.00;;;1.20;;
62633;SDS011;48704;50.534;6.442;2023-04-01T19:11:17;1.35;;;0.90;;
62633;SDS011;48704;50.534;6.442;2023-04-01T19:14:12;1.58;;;0.75;;
62633;SDS011;48704;50.534;6.442;2023-04-01T19:25:54;1.63;;;0.90;;
62633;SDS011;48704;50.534;6.442;2023-04-01T19:31:47;2.17;;;0.90;;
62633;SDS011;48704;50.534;6.442;2023-04-01T19:46:33;1.58;;;0.85;;
62633;SDS011;48704;50.534;6.442;2023-04-01T20:10:55;1.05;;;0.40;;
62633;SDS011;48704;50.534;6.442;2023-04-01T20:16:49;1.40;;;0.80;;
62633;SDS011;48704;50.534;6.442;2023-04-01T20:19:21;0.60;;;0.50;;
62633;SDS011;48704;50.534;6.442;2023-04-01T20:22:05;1.08;;;0.73;;
62633;SDS011;48704;50.534;6.442;2023-04-01T20:24:41;1.55;;;0.60;;
62633;SDS011;48704;50.534;6.442;2023-04-01T20:32:42;1.25;;;0.77;;
62633;SDS011;48704;50.534;6.442;2023-04-01T20:38:12;1.63;;;0.52;;
62633;SDS011;48704;50.534;6.442;2023-04-01T20:40:54;1.15;;;0.65;;
62633;SDS011;48704;50.534;6.442;2023-04-01T20:46:48;1.27;;;0.70;;
62633;SDS011;48704;50.534;6.442;2023-04-01T20:49:30;1.25;;;0.60;;
62633;SDS011;48704;50.534;6.442;2023-04-01T20:57:31;0.82;;;0.38;;
62633;SDS011;48704;50.534;6.442;2023-04-01T21:10:42;0.90;;;0.35;;
62633;SDS011;48704;50.534;6.442;2023-04-01T21:24:03;0.90;;;0.40;;
62633;SDS011;48704;50.534;6.442;2023-04-01T21:29:47;0.57;;;0.40;;
62633;SDS011;48704;50.534;6.442;2023-04-01T21:38:17;0.73;;;0.43;;
62633;SDS011;48704;50.534;6.442;2023-04-01T21:46:46;1.13;;;0.68;;
62633;SDS011;48704;50.534;6.442;2023-04-01T21:52:31;1.02;;;0.60;;
62633;SDS011;48704;50.534;6.442;2023-04-01T22:06:22;1.63;;;0.77;;
62633;SDS011;48704;50.534;6.442;2023-04-01T22:09:07;1.75;;;0.80;;
62633;SDS011;48704;50.534;6.442;2023-04-01T22:14:33;1.80;;;1.00;;
62633;SDS011;48704;50.534;6.442;2023-04-01T22:17:19;1.58;;;0.85;;
62633;SDS011;48704;50.534;6.442;2023-04-01T22:25:17;1.23;;;0.60;;
62633;SDS011;48704;50.534;6.442;2023-04-01T22:28:07;1.10;;;0.60;;
62633;SDS011;48704;50.534;6.442;2023-04-01T22:30:45;1.38;;;0.40;;
62633;SDS011;48704;50.534;6.442;2023-04-01T22:36:18;0.93;;;0.40;;
62633;SDS011;48704;50.534;6.442;2023-04-01T22:39:13;0.60;;;0.35;;
62633;SDS011;48704;50.534;6.442;2023-04-01T22:42:05;0.68;;;0.40;;
62633;SDS011;48704;50.534;6.442;2023-04-01T22:50:41;0.98;;;0.43;;
62633;SDS011;48704;50.534;6.442;2023-04-01T22:55:46;2.80;;;0.50;;
62633;SDS011;48704;50.534;6.442;2023-04-01T22:58:26;0.90;;;0.40;;
62633;SDS011;48704;50.534;6.442;2023-04-01T23:01:20;0.88;;;0.50;;
62633;SDS011;48704;50.534;6.442;2023-04-01T23:03:51;0.50;;;0.32;;
62633;SDS011;48704;50.534;6.442;2023-04-01T23:06:51;0.70;;;0.40;;
62633;SDS011;48704;50.534;6.442;2023-04-01T23:19:58;1.27;;;0.50;;
62633;SDS011;48704;50.534;6.442;2023-04-01T23:22:28;3.10;;;0.98;;
62633;SDS011;48704;50.534;6.442;2023-04-01T23:25:04;1.92;;;0.80;;
62633;SDS011;48704;50.534;6.442;2023-04-01T23:27:44;1.27;;;0.45;;
62633;SDS011;48704;50.534;6.442;2023-04-01T23:36:00;2.40;;;1.10;;
62633;SDS011;48704;50.534;6.442;2023-04-01T23:38:36;2.78;;;1.10;;
62633;SDS011;48704;50.534;6.442;2023-04-01T23:41:04;3.90;;;1.88;;
62633;SDS011;48704;50.534;6.442;2023-04-01T23:43:32;3.45;;;1.80;;
62633;SDS011;48704;50.534;6.442;2023-04-01T23:46:02;5.47;;;1.90;;
62633;SDS011;48704;50.534;6.442;2023-04-01T23:48:33;3.03;;;1.08;;
62633;SDS011;48704;50.534;6.442;2023-04-01T23:51:02;3.13;;;1.60;;
62633;SDS011;48704;50.534;6.442;2023-04-01T23:53:29;3.63;;;1.65;;
62633;SDS011;48704;50.534;6.442;2023-04-01T23:55:57;3.67;;;1.60;;
62633;SDS011;48704;50.534;6.442;2023-04-01T23:58:24;3.92;;;1.77;;
